sensor_id;sensor_type;location;lat;lon;timestamp;P1;durP1;ratioP1;P2;durP2;ratioP2
66052;SDS011;52833;45.112;39.556;2022-11-22T00:00:14;42.17;;;22.40;;
66052;SDS011;52833;45.112;39.556;2022-11-22T00:02:42;42.63;;;23.25;;
66052;SDS011;52833;45.112;39.556;2022-11-22T00:05:08;50.20;;;23.98;;
66052;SDS011;52833;45.112;39.556;2022-11-22T00:07:35;49.47;;;22.80;;
66052;SDS011;52833;45.112;39.556;2022-11-22T00:10:04;43.58;;;24.23;;
66052;SDS011;52833;45.112;39.556;2022-11-22T00:12:31;48.53;;;23.20;;
66052;SDS011;52833;45.112;39.556;2022-11-22T00:14:58;44.63;;;23.52;;
66052;SDS011;52833;45.112;39.556;2022-11-22T00:17:25;42.85;;;22.40;;
66052;SDS011;52833;45.112;39.556;2022-11-22T00:19:51;47.30;;;24.42;;
66052;SDS011;52833;45.112;39.556;2022-11-22T00:22:18;52.40;;;24.10;;
66052;SDS011;52833;45.112;39.556;2022-11-22T00:24:44;50.05;;;22.50;;
66052;SDS011;52833;45.112;39.556;2022-11-22T00:27:11;45.33;;;21.58;;
66052;SDS011;52833;45.112;39.556;2022-11-22T00:29:37;36.00;;;21.02;;
66052;SDS011;52833;45.112;39.556;2022-11-22T00:32:04;57.38;;;23.25;;
66052;SDS011;52833;45.112;39.556;2022-11-22T00:34:30;46.47;;;23.42;;
66052;SDS011;52833;45.112;39.556;2022-11-22T00:36:57;42.88;;;22.88;;
66052;SDS011;52833;45.112;39.556;2022-11-22T00:39:23;44.15;;;22.73;;
66052;SDS011;52833;45.112;39.556;2022-11-22T00:41:50;54.08;;;25.05;;
66052;SDS011;52833;45.112;39.556;2022-11-22T00:44:16;69.50;;;27.67;;
66052;SDS011;52833;45.112;39.556;2022-11-22T00:46:43;45.65;;;24.95;;
66052;SDS011;52833;45.112;39.556;2022-11-22T00:49:09;62.78;;;25.85;;
66052;SDS011;52833;45.112;39.556;2022-11-22T00:51:36;55.60;;;25.20;;
66052;SDS011;52833;45.112;39.556;2022-11-22T00:54:03;52.92;;;26.20;;
66052;SDS011;52833;45.112;39.556;2022-11-22T00:56:29;42.17;;;21.73;;
66052;SDS011;52833;45.112;39.556;2022-11-22T00:58:57;42.25;;;21.80;;
66052;SDS011;52833;45.112;39.556;2022-11-22T01:01:24;48.20;;;22.67;;
66052;SDS011;52833;45.112;39.556;2022-11-22T01:03:50;39.95;;;19.20;;
66052;SDS011;52833;45.112;39.556;2022-11-22T01:06:17;40.83;;;20.13;;
66052;SDS011;52833;45.112;39.556;2022-11-22T01:08:44;35.25;;;18.27;;
66052;SDS011;52833;45.112;39.556;2022-11-22T01:11:11;35.20;;;18.30;;
66052;SDS011;52833;45.112;39.556;2022-11-22T01:13:40;31.98;;;17.90;;
66052;SDS011;52833;45.112;39.556;2022-11-22T01:16:07;34.90;;;17.90;;
66052;SDS011;52833;45.112;39.556;2022-11-22T01:18:35;25.95;;;15.77;;
66052;SDS011;52833;45.112;39.556;2022-11-22T01:21:01;27.67;;;15.07;;
66052;SDS011;52833;45.112;39.556;2022-11-22T01:23:28;34.13;;;15.75;;
66052;SDS011;52833;45.112;39.556;2022-11-22T01:25:55;25.77;;;14.30;;
66052;SDS011;52833;45.112;39.556;2022-11-22T01:28:22;32.35;;;15.43;;
66052;SDS011;52833;45.112;39.556;2022-11-22T01:30:49;24.02;;;14.52;;
66052;SDS011;52833;45.112;39.556;2022-11-22T01:33:17;25.33;;;12.85;;
66052;SDS011;52833;45.112;39.556;2022-11-22T01:35:44;44.90;;;14.00;;
66052;SDS011;52833;45.112;39.556;2022-11-22T01:38:12;28.10;;;12.60;;
66052;SDS011;52833;45.112;39.556;2022-11-22T01:40:38;22.38;;;11.75;;
66052;SDS011;52833;45.112;39.556;2022-11-22T01:43:05;23.92;;;12.93;;
66052;SDS011;52833;45.112;39.556;2022-11-22T01:45:56;22.40;;;11.85;;
66052;SDS011;52833;45.112;39.556;2022-11-22T01:48:47;25.63;;;11.95;;
66052;SDS011;52833;45.112;39.556;2022-11-22T01:51:23;22.38;;;10.68;;
66052;SDS011;52833;45.112;39.556;2022-11-22T01:54:06;19.92;;;10.52;;
66052;SDS011;52833;45.112;39.556;2022-11-22T01:56:38;23.58;;;11.07;;
66052;SDS011;52833;45.112;39.556;2022-11-22T01:59:10;17.37;;;10.67;;
66052;SDS011;52833;45.112;39.556;2022-11-22T02:01:40;19.10;;;9.30;;
66052;SDS011;52833;45.112;39.556;2022-11-22T02:04:07;17.42;;;10.15;;
66052;SDS011;52833;45.112;39.556;2022-11-22T02:06:38;20.65;;;10.27;;
66052;SDS011;52833;45.112;39.556;2022-11-22T02:09:15;19.48;;;10.07;;
66052;SDS011;52833;45.112;39.556;2022-11-22T02:11:47;23.42;;;9.70;;
66052;SDS011;52833;45.112;39.556;2022-11-22T02:14:18;21.75;;;12.77;;
66052;SDS011;52833;45.112;39.556;2022-11-22T02:16:48;22.63;;;11.13;;
66052;SDS011;52833;45.112;39.556;2022-11-22T02:19:17;16.40;;;10.15;;
66052;SDS011;52833;45.112;39.556;2022-11-22T02:21:53;23.60;;;11.13;;
66052;SDS011;52833;45.112;39.556;2022-11-22T02:24:25;23.85;;;12.68;;
66052;SDS011;52833;45.112;39.556;2022-11-22T02:27:08;22.77;;;10.98;;
66052;SDS011;52833;45.112;39.556;2022-11-22T02:29:34;19.83;;;11.40;;
66052;SDS011;52833;45.112;39.556;2022-11-22T02:32:01;32.55;;;11.45;;
66052;SDS011;52833;45.112;39.556;2022-11-22T02:34:27;22.23;;;10.80;;
66052;SDS011;52833;45.112;39.556;2022-11-22T02:36:54;27.95;;;11.23;;
66052;SDS011;52833;45.112;39.556;2022-11-22T02:39:22;23.50;;;11.13;;
66052;SDS011;52833;45.112;39.556;2022-11-22T02:41:54;25.98;;;11.23;;
66052;SDS011;52833;45.112;39.556;2022-11-22T02:44:21;15.73;;;9.38;;
66052;SDS011;52833;45.112;39.556;2022-11-22T02:46:53;18.52;;;9.80;;
66052;SDS011;52833;45.112;39.556;2022-11-22T02:49:21;22.60;;;9.60;;
66052;SDS011;52833;45.112;39.556;2022-11-22T02:51:50;17.02;;;9.13;;
66052;SDS011;52833;45.112;39.556;2022-11-22T02:54:17;18.90;;;10.38;;
66052;SDS011;52833;45.112;39.556;2022-11-22T02:56:44;14.55;;;8.52;;
66052;SDS011;52833;45.112;39.556;2022-11-22T02:59:11;15.48;;;8.38;;
66052;SDS011;52833;45.112;39.556;2022-11-22T03:01:38;17.27;;;8.15;;
66052;SDS011;52833;45.112;39.556;2022-11-22T03:04:05;16.98;;;8.30;;
66052;SDS011;52833;45.112;39.556;2022-11-22T03:06:32;16.15;;;9.02;;
66052;SDS011;52833;45.112;39.556;2022-11-22T03:08:58;16.05;;;8.15;;
66052;SDS011;52833;45.112;39.556;2022-11-22T03:11:25;15.93;;;8.18;;
66052;SDS011;52833;45.112;39.556;2022-11-22T03:13:52;15.73;;;8.02;;
66052;SDS011;52833;45.112;39.556;2022-11-22T03:16:19;20.95;;;9.32;;
66052;SDS011;52833;45.112;39.556;2022-11-22T03:18:46;13.20;;;7.53;;
66052;SDS011;52833;45.112;39.556;2022-11-22T03:21:12;10.18;;;6.18;;
66052;SDS011;52833;45.112;39.556;2022-11-22T03:23:39;14.57;;;7.32;;
66052;SDS011;52833;45.112;39.556;2022-11-22T03:26:07;11.50;;;6.68;;
66052;SDS011;52833;45.112;39.556;2022-11-22T03:28:35;11.75;;;7.65;;
66052;SDS011;52833;45.112;39.556;2022-11-22T03:31:05;11.88;;;7.10;;
66052;SDS011;52833;45.112;39.556;2022-11-22T03:33:33;12.75;;;7.35;;
66052;SDS011;52833;45.112;39.556;2022-11-22T03:36:00;13.98;;;7.43;;
66052;SDS011;52833;45.112;39.556;2022-11-22T03:38:28;14.32;;;7.53;;
66052;SDS011;52833;45.112;39.556;2022-11-22T03:40:54;11.43;;;7.28;;
66052;SDS011;52833;45.112;39.556;2022-11-22T03:43:21;14.38;;;7.93;;
66052;SDS011;52833;45.112;39.556;2022-11-22T03:45:48;13.55;;;6.88;;
66052;SDS011;52833;45.112;39.556;2022-11-22T03:48:15;13.07;;;7.53;;
66052;SDS011;52833;45.112;39.556;2022-11-22T03:50:42;11.73;;;6.75;;
66052;SDS011;52833;45.112;39.556;2022-11-22T03:53:08;15.07;;;7.13;;
66052;SDS011;52833;45.112;39.556;2022-11-22T03:55:36;20.00;;;7.82;;
66052;SDS011;52833;45.112;39.556;2022-11-22T03:58:03;16.42;;;8.95;;
66052;SDS011;52833;45.112;39.556;2022-11-22T04:00:30;14.73;;;8.23;;
66052;SDS011;52833;45.112;39.556;2022-11-22T04:02:57;14.43;;;8.23;;
66052;SDS011;52833;45.112;39.556;2022-11-22T04:05:24;18.50;;;7.85;;
66052;SDS011;52833;45.112;39.556;2022-11-22T04:07:50;17.50;;;6.43;;
66052;SDS011;52833;45.112;39.556;2022-11-22T04:10:23;13.93;;;7.15;;
66052;SDS011;52833;45.112;39.556;2022-11-22T04:12:50;12.18;;;6.38;;
66052;SDS011;52833;45.112;39.556;2022-11-22T04:15:21;10.55;;;6.55;;
66052;SDS011;52833;45.112;39.556;2022-11-22T04:17:48;14.00;;;6.57;;
66052;SDS011;52833;45.112;39.556;2022-11-22T04:20:22;12.25;;;6.97;;
66052;SDS011;52833;45.112;39.556;2022-11-22T04:23:13;9.98;;;4.22;;
66052;SDS011;52833;45.112;39.556;2022-11-22T04:25:43;14.68;;;8.77;;
66052;SDS011;52833;45.112;39.556;2022-11-22T04:28:13;19.52;;;9.07;;
66052;SDS011;52833;45.112;39.556;2022-11-22T04:30:42;19.50;;;8.88;;
66052;SDS011;52833;45.112;39.556;2022-11-22T04:33:27;20.23;;;9.25;;
66052;SDS011;52833;45.112;39.556;2022-11-22T04:35:55;14.68;;;8.13;;
66052;SDS011;52833;45.112;39.556;2022-11-22T04:38:22;20.17;;;9.05;;
66052;SDS011;52833;45.112;39.556;2022-11-22T04:40:48;20.10;;;10.80;;
66052;SDS011;52833;45.112;39.556;2022-11-22T04:43:18;20.33;;;10.82;;
66052;SDS011;52833;45.112;39.556;2022-11-22T04:48:35;16.52;;;9.93;;
66052;SDS011;52833;45.112;39.556;2022-11-22T04:51:02;20.75;;;8.80;;
66052;SDS011;52833;45.112;39.556;2022-11-22T04:53:51;20.02;;;8.07;;
66052;SDS011;52833;45.112;39.556;2022-11-22T04:56:20;16.77;;;7.78;;
66052;SDS011;52833;45.112;39.556;2022-11-22T04:58:47;16.42;;;8.15;;
66052;SDS011;52833;45.112;39.556;2022-11-22T05:01:16;13.88;;;8.00;;
66052;SDS011;52833;45.112;39.556;2022-11-22T05:03:43;15.18;;;8.38;;
66052;SDS011;52833;45.112;39.556;2022-11-22T05:06:10;20.60;;;9.98;;
66052;SDS011;52833;45.112;39.556;2022-11-22T05:08:39;42.75;;;28.30;;
66052;SDS011;52833;45.112;39.556;2022-11-22T05:11:08;34.38;;;18.23;;
66052;SDS011;52833;45.112;39.556;2022-11-22T05:13:36;15.40;;;7.93;;
66052;SDS011;52833;45.112;39.556;2022-11-22T05:16:08;16.65;;;8.20;;
66052;SDS011;52833;45.112;39.556;2022-11-22T05:18:37;12.43;;;7.30;;
66052;SDS011;52833;45.112;39.556;2022-11-22T05:21:07;14.82;;;6.55;;
66052;SDS011;52833;45.112;39.556;2022-11-22T05:23:36;15.00;;;7.55;;
66052;SDS011;52833;45.112;39.556;2022-11-22T05:26:21;12.30;;;6.85;;
66052;SDS011;52833;45.112;39.556;2022-11-22T05:28:50;12.75;;;6.95;;
66052;SDS011;52833;45.112;39.556;2022-11-22T05:31:18;10.77;;;6.45;;
66052;SDS011;52833;45.112;39.556;2022-11-22T05:33:50;13.52;;;6.57;;
66052;SDS011;52833;45.112;39.556;2022-11-22T05:36:18;13.35;;;7.45;;
66052;SDS011;52833;45.112;39.556;2022-11-22T05:38:45;16.35;;;7.28;;
66052;SDS011;52833;45.112;39.556;2022-11-22T05:41:13;15.27;;;6.75;;
66052;SDS011;52833;45.112;39.556;2022-11-22T05:43:41;22.55;;;9.15;;
66052;SDS011;52833;45.112;39.556;2022-11-22T05:46:09;17.55;;;6.97;;
66052;SDS011;52833;45.112;39.556;2022-11-22T05:48:38;12.18;;;6.63;;
66052;SDS011;52833;45.112;39.556;2022-11-22T05:51:09;16.98;;;7.20;;
66052;SDS011;52833;45.112;39.556;2022-11-22T05:53:38;17.30;;;6.80;;
66052;SDS011;52833;45.112;39.556;2022-11-22T05:56:09;12.40;;;6.43;;
66052;SDS011;52833;45.112;39.556;2022-11-22T05:58:39;24.05;;;7.93;;
66052;SDS011;52833;45.112;39.556;2022-11-22T06:01:08;16.40;;;6.93;;
66052;SDS011;52833;45.112;39.556;2022-11-22T06:03:41;30.55;;;10.48;;
66052;SDS011;52833;45.112;39.556;2022-11-22T06:06:08;21.63;;;9.27;;
66052;SDS011;52833;45.112;39.556;2022-11-22T06:08:36;28.63;;;10.45;;
66052;SDS011;52833;45.112;39.556;2022-11-22T06:11:09;18.45;;;9.55;;
66052;SDS011;52833;45.112;39.556;2022-11-22T06:13:40;19.65;;;10.95;;
66052;SDS011;52833;45.112;39.556;2022-11-22T06:16:12;29.58;;;10.93;;
66052;SDS011;52833;45.112;39.556;2022-11-22T06:18:39;15.85;;;9.77;;
66052;SDS011;52833;45.112;39.556;2022-11-22T06:21:06;14.48;;;8.45;;
66052;SDS011;52833;45.112;39.556;2022-11-22T06:23:36;14.98;;;7.75;;
66052;SDS011;52833;45.112;39.556;2022-11-22T06:26:06;15.25;;;8.55;;
66052;SDS011;52833;45.112;39.556;2022-11-22T06:28:35;16.67;;;8.60;;
66052;SDS011;52833;45.112;39.556;2022-11-22T06:31:04;23.40;;;10.15;;
66052;SDS011;52833;45.112;39.556;2022-11-22T06:33:35;17.00;;;10.35;;
66052;SDS011;52833;45.112;39.556;2022-11-22T06:36:04;23.38;;;9.68;;
66052;SDS011;52833;45.112;39.556;2022-11-22T06:38:38;17.60;;;10.68;;
66052;SDS011;52833;45.112;39.556;2022-11-22T06:41:07;36.42;;;20.42;;
66052;SDS011;52833;45.112;39.556;2022-11-22T06:43:39;46.80;;;27.08;;
66052;SDS011;52833;45.112;39.556;2022-11-22T06:46:07;31.23;;;15.23;;
66052;SDS011;52833;45.112;39.556;2022-11-22T06:48:36;24.35;;;13.15;;
66052;SDS011;52833;45.112;39.556;2022-11-22T06:51:05;16.20;;;10.23;;
66052;SDS011;52833;45.112;39.556;2022-11-22T06:53:39;17.85;;;8.35;;
66052;SDS011;52833;45.112;39.556;2022-11-22T06:56:07;26.88;;;9.55;;
66052;SDS011;52833;45.112;39.556;2022-11-22T06:58:36;29.20;;;10.25;;
66052;SDS011;52833;45.112;39.556;2022-11-22T07:01:13;19.40;;;9.35;;
66052;SDS011;52833;45.112;39.556;2022-11-22T07:03:43;70.60;;;28.02;;
66052;SDS011;52833;45.112;39.556;2022-11-22T07:06:10;189.00;;;69.57;;
66052;SDS011;52833;45.112;39.556;2022-11-22T07:08:39;45.15;;;17.35;;
66052;SDS011;52833;45.112;39.556;2022-11-22T07:11:07;15.73;;;8.48;;
66052;SDS011;52833;45.112;39.556;2022-11-22T07:13:36;20.30;;;7.47;;
66052;SDS011;52833;45.112;39.556;2022-11-22T07:16:05;479.88;;;156.55;;
66052;SDS011;52833;45.112;39.556;2022-11-22T07:18:34;315.65;;;95.18;;
66052;SDS011;52833;45.112;39.556;2022-11-22T07:21:01;96.28;;;29.60;;
66052;SDS011;52833;45.112;39.556;2022-11-22T07:23:30;21.15;;;7.75;;
66052;SDS011;52833;45.112;39.556;2022-11-22T07:25:57;12.00;;;6.22;;
66052;SDS011;52833;45.112;39.556;2022-11-22T07:28:24;15.18;;;5.90;;
66052;SDS011;52833;45.112;39.556;2022-11-22T07:30:51;14.43;;;7.35;;
66052;SDS011;52833;45.112;39.556;2022-11-22T07:33:19;16.55;;;5.68;;
66052;SDS011;52833;45.112;39.556;2022-11-22T07:35:45;16.08;;;5.75;;
66052;SDS011;52833;45.112;39.556;2022-11-22T07:38:12;10.20;;;6.13;;
66052;SDS011;52833;45.112;39.556;2022-11-22T07:40:39;11.20;;;5.15;;
66052;SDS011;52833;45.112;39.556;2022-11-22T07:43:05;13.77;;;5.43;;
66052;SDS011;52833;45.112;39.556;2022-11-22T07:45:32;9.45;;;4.65;;
66052;SDS011;52833;45.112;39.556;2022-11-22T07:47:59;13.18;;;4.40;;
66052;SDS011;52833;45.112;39.556;2022-11-22T07:50:26;21.50;;;5.30;;
66052;SDS011;52833;45.112;39.556;2022-11-22T07:52:56;10.30;;;5.20;;
66052;SDS011;52833;45.112;39.556;2022-11-22T07:55:24;15.55;;;6.30;;
66052;SDS011;52833;45.112;39.556;2022-11-22T07:57:52;13.90;;;6.00;;
66052;SDS011;52833;45.112;39.556;2022-11-22T08:00:19;11.88;;;6.13;;
66052;SDS011;52833;45.112;39.556;2022-11-22T08:02:46;26.40;;;10.93;;
66052;SDS011;52833;45.112;39.556;2022-11-22T08:05:12;24.75;;;13.18;;
66052;SDS011;52833;45.112;39.556;2022-11-22T08:07:44;26.73;;;12.57;;
66052;SDS011;52833;45.112;39.556;2022-11-22T08:10:12;26.50;;;13.23;;
66052;SDS011;52833;45.112;39.556;2022-11-22T08:12:39;25.30;;;11.75;;
66052;SDS011;52833;45.112;39.556;2022-11-22T08:15:07;22.70;;;11.70;;
66052;SDS011;52833;45.112;39.556;2022-11-22T08:17:35;35.20;;;15.13;;
66052;SDS011;52833;45.112;39.556;2022-11-22T08:20:03;27.33;;;13.90;;
66052;SDS011;52833;45.112;39.556;2022-11-22T08:22:34;22.55;;;11.43;;
66052;SDS011;52833;45.112;39.556;2022-11-22T08:25:02;21.88;;;10.15;;
66052;SDS011;52833;45.112;39.556;2022-11-22T08:27:29;19.02;;;8.82;;
66052;SDS011;52833;45.112;39.556;2022-11-22T08:29:56;19.85;;;9.55;;
66052;SDS011;52833;45.112;39.556;2022-11-22T08:32:22;26.58;;;11.75;;
66052;SDS011;52833;45.112;39.556;2022-11-22T08:34:48;27.33;;;10.55;;
66052;SDS011;52833;45.112;39.556;2022-11-22T08:37:15;23.67;;;10.82;;
66052;SDS011;52833;45.112;39.556;2022-11-22T08:39:41;29.52;;;9.40;;
66052;SDS011;52833;45.112;39.556;2022-11-22T08:42:08;19.25;;;8.05;;
66052;SDS011;52833;45.112;39.556;2022-11-22T08:44:34;19.55;;;9.73;;
66052;SDS011;52833;45.112;39.556;2022-11-22T08:47:01;25.90;;;9.40;;
66052;SDS011;52833;45.112;39.556;2022-11-22T08:49:28;22.77;;;9.82;;
66052;SDS011;52833;45.112;39.556;2022-11-22T08:51:55;19.13;;;10.18;;
66052;SDS011;52833;45.112;39.556;2022-11-22T08:54:21;22.92;;;9.90;;
66052;SDS011;52833;45.112;39.556;2022-11-22T08:56:48;26.02;;;10.73;;
66052;SDS011;52833;45.112;39.556;2022-11-22T08:59:15;17.10;;;9.02;;
66052;SDS011;52833;45.112;39.556;2022-11-22T09:01:41;20.23;;;9.20;;
66052;SDS011;52833;45.112;39.556;2022-11-22T09:04:08;20.63;;;8.40;;
66052;SDS011;52833;45.112;39.556;2022-11-22T09:06:38;14.73;;;8.00;;
66052;SDS011;52833;45.112;39.556;2022-11-22T09:09:05;17.90;;;8.13;;
66052;SDS011;52833;45.112;39.556;2022-11-22T09:11:32;22.60;;;7.82;;
66052;SDS011;52833;45.112;39.556;2022-11-22T09:13:59;14.65;;;7.68;;
66052;SDS011;52833;45.112;39.556;2022-11-22T09:16:26;13.02;;;7.03;;
66052;SDS011;52833;45.112;39.556;2022-11-22T09:18:56;22.50;;;8.75;;
66052;SDS011;52833;45.112;39.556;2022-11-22T09:21:23;27.52;;;10.57;;
66052;SDS011;52833;45.112;39.556;2022-11-22T09:23:50;14.25;;;7.22;;
66052;SDS011;52833;45.112;39.556;2022-11-22T09:26:22;10.88;;;5.72;;
66052;SDS011;52833;45.112;39.556;2022-11-22T09:28:50;13.75;;;6.60;;
66052;SDS011;52833;45.112;39.556;2022-11-22T09:31:19;16.05;;;6.55;;
66052;SDS011;52833;45.112;39.556;2022-11-22T09:33:50;14.10;;;7.50;;
66052;SDS011;52833;45.112;39.556;2022-11-22T09:38:45;17.08;;;8.40;;
66052;SDS011;52833;45.112;39.556;2022-11-22T09:49:23;11.57;;;6.97;;
66052;SDS011;52833;45.112;39.556;2022-11-22T09:52:00;12.65;;;6.72;;
66052;SDS011;52833;45.112;39.556;2022-11-22T09:54:41;17.92;;;8.77;;
66052;SDS011;52833;45.112;39.556;2022-11-22T10:00:07;16.13;;;7.82;;
66052;SDS011;52833;45.112;39.556;2022-11-22T10:03:37;24.75;;;10.73;;
66052;SDS011;52833;45.112;39.556;2022-11-22T10:05:54;50.95;;;22.10;;
66052;SDS011;52833;45.112;39.556;2022-11-22T10:11:12;284.33;;;77.22;;
66052;SDS011;52833;45.112;39.556;2022-11-22T10:13:57;165.52;;;49.95;;
66052;SDS011;52833;45.112;39.556;2022-11-22T10:17:02;220.43;;;59.80;;
66052;SDS011;52833;45.112;39.556;2022-11-22T10:19:34;32.85;;;14.20;;
66052;SDS011;52833;45.112;39.556;2022-11-22T10:24:37;39.10;;;18.70;;
66052;SDS011;52833;45.112;39.556;2022-11-22T10:27:05;41.55;;;19.42;;
66052;SDS011;52833;45.112;39.556;2022-11-22T10:38:15;136.95;;;55.30;;
66052;SDS011;52833;45.112;39.556;2022-11-22T10:41:04;138.93;;;54.55;;
66052;SDS011;52833;45.112;39.556;2022-11-22T10:44:01;95.88;;;36.88;;
66052;SDS011;52833;45.112;39.556;2022-11-22T10:52:15;136.93;;;41.58;;
66052;SDS011;52833;45.112;39.556;2022-11-22T10:57:37;90.45;;;32.88;;
66052;SDS011;52833;45.112;39.556;2022-11-22T11:00:25;95.85;;;34.28;;
66052;SDS011;52833;45.112;39.556;2022-11-22T11:02:58;66.68;;;22.48;;
66052;SDS011;52833;45.112;39.556;2022-11-22T11:08:28;75.82;;;28.92;;
66052;SDS011;52833;45.112;39.556;2022-11-22T11:11:05;91.45;;;33.28;;
66052;SDS011;52833;45.112;39.556;2022-11-22T11:13:37;169.80;;;61.83;;
66052;SDS011;52833;45.112;39.556;2022-11-22T11:16:18;179.15;;;67.13;;
66052;SDS011;52833;45.112;39.556;2022-11-22T11:18:56;105.60;;;44.55;;
66052;SDS011;52833;45.112;39.556;2022-11-22T11:21:26;119.07;;;45.55;;
66052;SDS011;52833;45.112;39.556;2022-11-22T11:23:53;72.55;;;33.30;;
66052;SDS011;52833;45.112;39.556;2022-11-22T11:26:38;41.50;;;19.88;;
66052;SDS011;52833;45.112;39.556;2022-11-22T11:31:47;41.58;;;20.35;;
66052;SDS011;52833;45.112;39.556;2022-11-22T11:34:20;68.82;;;29.80;;
66052;SDS011;52833;45.112;39.556;2022-11-22T11:36:49;78.65;;;36.63;;
66052;SDS011;52833;45.112;39.556;2022-11-22T11:39:19;75.10;;;37.38;;
66052;SDS011;52833;45.112;39.556;2022-11-22T11:41:47;87.07;;;41.15;;
66052;SDS011;52833;45.112;39.556;2022-11-22T11:47:02;85.45;;;37.25;;
66052;SDS011;52833;45.112;39.556;2022-11-22T11:49:30;73.45;;;33.58;;
66052;SDS011;52833;45.112;39.556;2022-11-22T11:52:04;62.97;;;28.25;;
66052;SDS011;52833;45.112;39.556;2022-11-22T11:57:10;37.63;;;20.70;;
66052;SDS011;52833;45.112;39.556;2022-11-22T12:02:37;35.95;;;18.27;;
66052;SDS011;52833;45.112;39.556;2022-11-22T12:07:44;20.55;;;9.40;;
66052;SDS011;52833;45.112;39.556;2022-11-22T12:13:45;20.85;;;7.78;;
66052;SDS011;52833;45.112;39.556;2022-11-22T12:19:13;16.90;;;8.13;;
66052;SDS011;52833;45.112;39.556;2022-11-22T12:21:53;17.20;;;6.50;;
66052;SDS011;52833;45.112;39.556;2022-11-22T12:27:10;29.98;;;9.38;;
66052;SDS011;52833;45.112;39.556;2022-11-22T12:29:38;20.58;;;9.00;;
66052;SDS011;52833;45.112;39.556;2022-11-22T12:32:10;20.55;;;8.05;;
66052;SDS011;52833;45.112;39.556;2022-11-22T12:34:52;19.20;;;9.48;;
66052;SDS011;52833;45.112;39.556;2022-11-22T12:37:34;38.90;;;16.88;;
66052;SDS011;52833;45.112;39.556;2022-11-22T12:40:12;73.70;;;30.83;;
66052;SDS011;52833;45.112;39.556;2022-11-22T12:48:11;57.55;;;24.15;;
66052;SDS011;52833;45.112;39.556;2022-11-22T12:50:51;43.70;;;16.73;;
66052;SDS011;52833;45.112;39.556;2022-11-22T12:59:16;45.08;;;18.52;;
66052;SDS011;52833;45.112;39.556;2022-11-22T13:01:31;72.72;;;31.13;;
66052;SDS011;52833;45.112;39.556;2022-11-22T13:07:00;41.47;;;20.17;;
66052;SDS011;52833;45.112;39.556;2022-11-22T13:10:19;34.28;;;15.80;;
66052;SDS011;52833;45.112;39.556;2022-11-22T13:12:59;37.65;;;14.27;;
66052;SDS011;52833;45.112;39.556;2022-11-22T13:15:30;30.02;;;11.05;;
66052;SDS011;52833;45.112;39.556;2022-11-22T13:17:59;21.75;;;9.27;;
66052;SDS011;52833;45.112;39.556;2022-11-22T13:20:28;30.60;;;8.40;;
66052;SDS011;52833;45.112;39.556;2022-11-22T13:26:27;31.73;;;11.48;;
66052;SDS011;52833;45.112;39.556;2022-11-22T13:29:21;33.80;;;12.10;;
66052;SDS011;52833;45.112;39.556;2022-11-22T13:32:03;18.23;;;8.05;;
66052;SDS011;52833;45.112;39.556;2022-11-22T13:34:36;19.33;;;8.73;;
66052;SDS011;52833;45.112;39.556;2022-11-22T13:37:10;19.05;;;7.15;;
66052;SDS011;52833;45.112;39.556;2022-11-22T13:39:40;15.77;;;6.43;;
66052;SDS011;52833;45.112;39.556;2022-11-22T13:42:11;28.13;;;7.63;;
66052;SDS011;52833;45.112;39.556;2022-11-22T13:47:34;24.15;;;10.10;;
66052;SDS011;52833;45.112;39.556;2022-11-22T13:55:44;20.73;;;5.65;;
66052;SDS011;52833;45.112;39.556;2022-11-22T14:00:55;28.20;;;13.43;;
66052;SDS011;52833;45.112;39.556;2022-11-22T14:03:35;21.85;;;7.55;;
66052;SDS011;52833;45.112;39.556;2022-11-22T14:23:12;11.63;;;4.50;;
66052;SDS011;52833;45.112;39.556;2022-11-22T14:31:28;14.95;;;5.00;;
66052;SDS011;52833;45.112;39.556;2022-11-22T14:34:18;11.60;;;4.43;;
66052;SDS011;52833;45.112;39.556;2022-11-22T14:47:38;11.13;;;5.13;;
66052;SDS011;52833;45.112;39.556;2022-11-22T14:53:17;13.40;;;3.20;;
66052;SDS011;52833;45.112;39.556;2022-11-22T14:55:47;11.75;;;4.40;;
66052;SDS011;52833;45.112;39.556;2022-11-22T14:58:21;8.38;;;4.28;;
66052;SDS011;52833;45.112;39.556;2022-11-22T15:01:10;6.88;;;3.58;;
66052;SDS011;52833;45.112;39.556;2022-11-22T15:06:43;8.25;;;3.30;;
66052;SDS011;52833;45.112;39.556;2022-11-22T15:09:35;9.10;;;3.58;;
66052;SDS011;52833;45.112;39.556;2022-11-22T15:15:28;8.70;;;4.18;;
66052;SDS011;52833;45.112;39.556;2022-11-22T15:18:06;7.90;;;4.18;;
66052;SDS011;52833;45.112;39.556;2022-11-22T15:20:50;7.60;;;3.53;;
66052;SDS011;52833;45.112;39.556;2022-11-22T15:23:20;9.23;;;3.30;;
66052;SDS011;52833;45.112;39.556;2022-11-22T15:26:03;8.73;;;3.13;;
66052;SDS011;52833;45.112;39.556;2022-11-22T15:28:43;10.53;;;3.50;;
66052;SDS011;52833;45.112;39.556;2022-11-22T15:31:15;8.70;;;2.97;;
66052;SDS011;52833;45.112;39.556;2022-11-22T15:33:46;4.40;;;1.55;;
66052;SDS011;52833;45.112;39.556;2022-11-22T15:36:24;1.83;;;1.42;;
66052;SDS011;52833;45.112;39.556;2022-11-22T15:39:11;2.20;;;1.55;;
66052;SDS011;52833;45.112;39.556;2022-11-22T15:41:39;4.93;;;1.50;;
66052;SDS011;52833;45.112;39.556;2022-11-22T15:44:06;1.80;;;1.52;;
66052;SDS011;52833;45.112;39.556;2022-11-22T15:46:37;1.97;;;1.57;;
66052;SDS011;52833;45.112;39.556;2022-11-22T15:49:05;13.65;;;2.35;;
66052;SDS011;52833;45.112;39.556;2022-11-22T15:51:46;2.80;;;1.88;;
66052;SDS011;52833;45.112;39.556;2022-11-22T15:54:15;4.35;;;2.03;;
66052;SDS011;52833;45.112;39.556;2022-11-22T15:56:55;6.65;;;2.22;;
66052;SDS011;52833;45.112;39.556;2022-11-22T15:59:29;9.05;;;2.20;;
66052;SDS011;52833;45.112;39.556;2022-11-22T16:02:11;4.70;;;2.45;;
66052;SDS011;52833;45.112;39.556;2022-11-22T16:04:51;11.23;;;2.72;;
66052;SDS011;52833;45.112;39.556;2022-11-22T16:07:37;12.25;;;2.30;;
66052;SDS011;52833;45.112;39.556;2022-11-22T16:10:52;3.13;;;1.60;;
66052;SDS011;52833;45.112;39.556;2022-11-22T16:13:11;3.72;;;1.48;;
66052;SDS011;52833;45.112;39.556;2022-11-22T16:16:05;7.07;;;1.58;;
66052;SDS011;52833;45.112;39.556;2022-11-22T16:18:39;5.97;;;1.85;;
66052;SDS011;52833;45.112;39.556;2022-11-22T16:23:39;2.13;;;1.45;;
66052;SDS011;52833;45.112;39.556;2022-11-22T16:28:47;1.33;;;1.23;;
66052;SDS011;52833;45.112;39.556;2022-11-22T16:31:23;3.25;;;1.77;;
66052;SDS011;52833;45.112;39.556;2022-11-22T16:33:53;2.22;;;1.50;;
66052;SDS011;52833;45.112;39.556;2022-11-22T16:36:21;4.38;;;1.40;;
66052;SDS011;52833;45.112;39.556;2022-11-22T16:38:51;3.30;;;1.83;;
66052;SDS011;52833;45.112;39.556;2022-11-22T16:41:18;5.45;;;2.30;;
66052;SDS011;52833;45.112;39.556;2022-11-22T16:46:39;4.53;;;1.63;;
66052;SDS011;52833;45.112;39.556;2022-11-22T16:49:16;4.57;;;1.83;;
66052;SDS011;52833;45.112;39.556;2022-11-22T16:51:45;2.90;;;1.80;;
66052;SDS011;52833;45.112;39.556;2022-11-22T16:54:14;3.33;;;1.90;;
66052;SDS011;52833;45.112;39.556;2022-11-22T16:56:43;2.78;;;1.70;;
66052;SDS011;52833;45.112;39.556;2022-11-22T16:59:11;14.45;;;1.77;;
66052;SDS011;52833;45.112;39.556;2022-11-22T17:01:38;2.80;;;1.67;;